Have a Safe July 4th! 

Flight Track Log - Related Links

Times and Time Zones

All times are in EDT time to prevent confusion due to time zone crossing. See the ABX555 flight status page for this flight to view local times or setup timezone preferences in your user account.

Time Position Orientation Groundspeed Altitude Reporting Facility
EDT Latitude Longitude Course Direction KTS MPH feet Rate Location/Type
Tue 05:30:00 AM 39.0500 -84.6833 270° West 151 174 1,300  Level Cincinnati TRACON
Tue 05:31:00 AM 39.0500 -84.7333 270° West 159 183 2,900 1,850 Climbing Cincinnati TRACON
Tue 05:32:00 AM 39.0500 -84.8167 270° West 248 285 5,000 2,350 Climbing Cincinnati TRACON
Tue 05:33:00 AM 39.0000 -84.8667 218° Southwest 293 337 7,600 2,545 Climbing Cincinnati TRACON
Tue 05:35:18 AM 38.9450 -84.6417 107° East 336 387 13,400 2,667 Climbing Indianapolis Center
Tue 05:36:18 AM 38.9319 -84.5108 97° East 363 418 16,400 2,777 Climbing Indianapolis Center
Tue 05:37:19 AM 38.9156 -84.3725 99° East 387 445 19,000 2,628 Climbing Indianapolis Center
Tue 05:38:19 AM 38.8997 -84.2281 98° East 403 464 21,700 2,182 Climbing Indianapolis Center
Tue 05:39:20 AM 38.8822 -84.0769 98° East 426 490 23,400 2,016 Climbing Indianapolis Center
Tue 05:40:21 AM 38.8528 -83.9228 104° East 444 511 25,800 2,281 Climbing Indianapolis Center
Tue 05:41:21 AM 38.8189 -83.7667 106° East 453 521 28,000 2,083 Climbing Indianapolis Center
Tue 05:42:22 AM 38.7881 -83.6050 104° East 464 534 30,000 1,983 Climbing Indianapolis Center
Tue 05:43:22 AM 38.7844 -83.4319 91° East 481 554 32,000 2,083 Climbing Indianapolis Center
Tue 05:44:23 AM 38.7842 -83.2569 90° East 488 562 34,200 1,488 Climbing Indianapolis Center
Tue 05:45:23 AM 38.7839 -83.0975 90° East 483 556 35,000 264 Climbing Indianapolis Center
Tue 05:47:25 AM 38.7814 -82.7539 90° East 481 554 35,000  Level Indianapolis Center
Tue 05:48:25 AM 38.7800 -82.5831 91° East 479 551 35,000  Level Indianapolis Center
Tue 05:49:26 AM 38.7783 -82.4108 91° East 481 554 35,000  Level Indianapolis Center
Tue 05:50:26 AM 38.7761 -82.2394 91° East 482 555 35,000  Level Indianapolis Center
Tue 05:51:27 AM 38.7744 -82.0667 91° East 483 556 35,000  Level Indianapolis Center
Tue 05:52:27 AM 38.7722 -81.8942 91° East 484 557 35,000  Level Indianapolis Center
Tue 05:53:28 AM 38.7703 -81.7197 91° East 487 560 35,000  Level Indianapolis Center
Tue 05:54:28 AM 38.7647 -81.5206 92° East 489 563 35,000  Level Indianapolis Center
Tue 05:55:29 AM 38.7625 -81.3606 91° East 485 558 35,000  Level Indianapolis Center
Tue 05:56:29 AM 38.7589 -81.1828 91° East 489 563 35,000  Level Indianapolis Center
Tue 05:57:30 AM 38.7550 -81.0072 92° East 491 565 35,000  Level Indianapolis Center
Tue 05:58:30 AM 38.7508 -80.8325 92° East 491 565 35,000  Level Indianapolis Center
Tue 05:59:31 AM 38.7469 -80.6578 92° East 490 564 35,000  Level Indianapolis Center
Tue 06:00:31 AM 38.7408 -80.4828 93° East 493 567 35,000  Level Indianapolis Center
Tue 06:01:32 AM 38.7378 -80.3069 91° East 496 571 35,000  Level Indianapolis Center
Tue 06:02:32 AM 38.7297 -80.1325 93° East 492 566 35,000  Level Indianapolis Center
Tue 06:03:33 AM 38.7272 -79.9569 91° East 493 567 35,000  Level Indianapolis Center
Tue 06:04:29 AM 38.7231 -79.8014 92° East 485 558 35,000  Level Washington Center
Tue 06:05:28 AM 38.7186 -79.6228 92° East 485 558 35,000  Level Washington Center
Tue 06:06:29 AM 38.7097 -79.4494 94° East 485 558 35,000  Level Washington Center
Tue 06:07:27 AM 38.7033 -79.2522 92° East 496 571 35,000 -356 Level Washington Center
Tue 06:08:27 AM 38.6919 -79.0733 95° East 501 577 34,300 -496 Descending Washington Center
Tue 06:09:28 AM 38.6867 -78.8975 92° East 501 577 34,000 -397 Descending Washington Center
Tue 06:10:28 AM 38.6786 -78.7322 94° East 490 564 33,500 -1,866 Descending Washington Center
Tue 06:11:27 AM 38.6725 -78.5592 93° East 485 558 30,300 -2,926 Descending Washington Center
Tue 06:12:29 AM 38.6642 -78.3861 93° East 485 558 27,600 -2,585 Descending Washington Center
Tue 06:13:30 AM 38.6575 -78.2211 93° East 480 552 25,000 -2,579 Descending Washington Center
Tue 06:14:30 AM 38.6503 -78.0639 93° East 462 532 22,400 -2,593 Descending Washington Center
Tue 06:15:28 AM 38.6428 -77.9147 94° East 439 505 19,900 -2,000 Descending Washington Center
Tue 06:16:27 AM 38.6456 -77.7714 89° East 419 482 18,500 -1,171 Descending Washington Center
Tue 06:17:31 AM 38.6500 -77.6167 88° East 397 457 17,500 -864 Descending Potomac TRACON
Tue 06:18:25 AM 38.6667 -77.5000 80° East 386 444 16,800 -833 Descending Potomac TRACON
Tue 06:19:19 AM 38.6667 -77.3833 90° East 380 437 16,000 -889 Descending Potomac TRACON
Tue 06:20:13 AM 38.6833 -77.2500 81° East 383 441 15,200 -1,474 Descending Potomac TRACON
Tue 06:21:13 AM 38.6833 -77.1333 90° East 368 423 13,200 -1,667 Descending Potomac TRACON
Tue 06:22:19 AM 38.7000 -77.0000 81° East 342 394 11,700 -1,300 Descending Potomac TRACON
Tue 06:23:13 AM 38.7000 -76.8833 90° East 316 364 10,600 -1,222 Descending Potomac TRACON
Tue 06:24:07 AM 38.7000 -76.8000 90° East 292 336 9,500 -1,167 Descending Potomac TRACON
Tue 06:25:01 AM 38.7167 -76.7000 78° East 287 330 8,500 -1,158 Descending Potomac TRACON
Tue 06:26:01 AM 38.7667 -76.6167 52° Northeast 280 322 7,300 -1,158 Descending Potomac TRACON
Tue 06:26:55 AM 38.8000 -76.5500 57° Northeast 271 312 6,300 -1,211 Descending Potomac TRACON
Tue 06:27:55 AM 38.8500 -76.5000 38° Northeast 252 290 5,000 -1,150 Descending Potomac TRACON
Tue 06:28:55 AM 38.9167 -76.4833 11° North 244 281 4,000 -850 Descending Potomac TRACON
Tue 06:29:55 AM 38.9833 -76.4667 11° North 217 250 3,300 -650 Descending Potomac TRACON
Tue 06:30:55 AM 39.0333 -76.4333 27° Northeast 211 243 2,700 -684 Descending Potomac TRACON
Tue 06:31:49 AM 39.0833 -76.4333 360° North 198 228 2,000 -368 Descending Potomac TRACON
Tue 06:32:49 AM 39.1333 -76.4500 346° North 172 198 2,000  Level Potomac TRACON
Tue 06:33:49 AM 39.1500 -76.5000 293° West 170 196 2,000 -200 Level Potomac TRACON
Tue 06:34:49 AM 39.1667 -76.5500 293° West 150 173 1,600 -500 Descending Potomac TRACON
Tue 06:35:49 AM 39.1667 -76.6000 270° West 126 145 1,000 -600 Descending Potomac TRACON
Tue 06:37:00 AM 39.1667 -76.6667 281° West  Level FlightAware Approximate
Tue 06:44:00 AM 39.1754 -76.6683 281° West  Level Estimated
Tue 06:45:00 AM 39.1754 -76.6683 281° West  Level Estimated

Login

Don't have an account? Register now (free) for customized features, flight alerts, and more!